Main page
METAR-TAF:

METAR-TAF

Airports :

Diourbel, Senegal

latitude: 14-39N, longitude: 016-14W, elevation: 7 m

Current weather observation

The report was made 2 hours and 19 minutes ago, at 18:00 UTC
Wind 2 kt from the East/Southeast
Temperature 32°C
Humidity 59%
Pressure 1009 hPa
Visibility 10 km or more
no clouds below 1500 m and no cumulonimbus

METAR: GOOD 201800Z 12002KT CAVOK 32/23 Q1009

Time: 20:19 (20:19 UTC)


TAF: missing

Weather observations and forecasts of more than 4000 airports (METAR and TAF reports).

The available stations are represented by yellow and red dots on the map.

Hover mouse over dot to see the name of the station.

Then click to see weather observations and forecasts.

To change the map : click on the green buttons with a black cross to zoom in, on the green button with a dash to zoom out, or on the green arrows for adjacent maps.


METAR-TAF: